Time;durP1;ratioP1;P1;durP2;ratioP2;P2;SDS_P1;SDS_P2;PMS_P1;PMS_P2;Temp;Humidity;BMP_temperature;BMP_pressure;BME280_temperature;BME280_humidity;BME280_pressure;Samples;Min_cycle;Max_cycle;Signal;HPM_P1;HPM_P2
2023/04/15 00:02:12;;;;;;;1.58;1.35;;;;;;;-147.53;100.00;57128.34;10472249;28;20041;-75
2023/04/15 00:07:15;;;;;;;1.85;1.20;;;;;;;-147.53;100.00;57128.34;10457135;28;20041;-75
2023/04/15 00:12:16;;;;;;;0.57;0.57;;;;;;;-147.53;100.00;57128.34;10446676;28;20521;-77
2023/04/15 00:17:18;;;;;;;2.85;1.33;;;;;;;-147.53;100.00;57128.34;10457219;28;20520;-76
2023/04/15 00:22:20;;;;;;;0.90;0.77;;;;;;;-147.53;100.00;57128.34;10480288;28;20389;-76
2023/04/15 00:27:22;;;;;;;3.13;1.60;;;;;;;-147.53;100.00;57128.34;10446622;28;20044;-75
2023/04/15 00:32:23;;;;;;;2.83;1.73;;;;;;;-147.53;100.00;57128.34;10462177;28;20083;-76
2023/04/15 00:37:25;;;;;;;1.92;0.90;;;;;;;-147.53;100.00;57128.34;10421328;28;20045;-76
2023/04/15 00:42:27;;;;;;;1.52;1.20;;;;;;;-147.53;100.00;57128.34;10461254;28;20593;-75
2023/04/15 00:47:30;;;;;;;1.63;0.75;;;;;;;-147.53;100.00;57128.34;10455302;28;20586;-75
2023/04/15 00:52:33;;;;;;;1.85;0.98;;;;;;;-147.53;100.00;57128.34;10471530;28;20444;-76
2023/04/15 00:57:35;;;;;;;2.10;1.15;;;;;;;-147.53;100.00;57128.34;10459400;28;20076;-75
2023/04/15 01:02:37;;;;;;;1.90;1.20;;;;;;;-147.53;100.00;57128.34;10444340;28;20041;-76
2023/04/15 01:07:39;;;;;;;1.58;0.90;;;;;;;-147.53;100.00;57128.34;10445143;28;20086;-75
2023/04/15 01:12:42;;;;;;;0.95;0.77;;;;;;;-147.53;100.00;57128.34;10448467;28;20045;-75
2023/04/15 01:17:43;;;;;;;4.85;1.75;;;;;;;-147.53;100.00;57128.34;10445607;28;20044;-76
2023/04/15 01:22:45;;;;;;;1.38;0.63;;;;;;;-147.53;100.00;57128.34;10468788;28;20141;-75
2023/04/15 01:27:47;;;;;;;4.35;1.83;;;;;;;-147.53;100.00;57128.34;10477917;28;20041;-75
2023/04/15 01:32:49;;;;;;;1.92;1.10;;;;;;;-147.53;100.00;57128.34;10423321;28;20037;-76
2023/04/15 01:37:56;;;;;;;3.65;1.48;;;;;;;-147.53;100.00;57128.34;10456547;28;20051;-76
2023/04/15 01:42:57;;;;;;;1.90;1.02;;;;;;;-147.53;100.00;57128.34;10444045;28;20132;-76
2023/04/15 01:47:59;;;;;;;3.50;1.52;;;;;;;-147.53;100.00;57128.34;10440995;28;20411;-76
2023/04/15 01:53:01;;;;;;;2.42;1.33;;;;;;;-147.53;100.00;57128.34;10427040;28;20123;-75
2023/04/15 01:58:03;;;;;;;7.53;2.25;;;;;;;-147.53;100.00;57128.34;10435295;28;20061;-76
2023/04/15 02:03:05;;;;;;;2.38;1.30;;;;;;;-147.53;100.00;57128.34;10451057;28;20065;-76
2023/04/15 02:08:08;;;;;;;2.67;1.50;;;;;;;-147.53;100.00;57128.34;10443025;28;20045;-76
2023/04/15 02:13:11;;;;;;;3.08;1.58;;;;;;;-147.53;100.00;57128.34;10447104;28;20041;-76
2023/04/15 02:18:15;;;;;;;4.43;1.98;;;;;;;-147.53;100.00;57128.34;10450237;28;20043;-76
2023/04/15 02:23:17;;;;;;;4.88;1.90;;;;;;;-147.53;100.00;57128.34;10465525;28;20041;-76
2023/04/15 02:28:19;;;;;;;3.83;2.08;;;;;;;-147.53;100.00;57128.34;10466775;28;20045;-75
2023/04/15 02:33:21;;;;;;;2.50;1.65;;;;;;;-147.53;100.00;57128.34;10439878;28;20123;-76
2023/04/15 02:38:24;;;;;;;2.10;1.48;;;;;;;-147.53;100.00;57128.34;10474912;28;20056;-77
2023/04/15 02:43:25;;;;;;;1.95;1.35;;;;;;;-147.53;100.00;57128.34;10441389;28;20041;-77
2023/04/15 02:48:27;;;;;;;3.25;1.88;;;;;;;-147.53;100.00;57128.34;10449643;28;20068;-76
2023/04/15 02:53:29;;;;;;;3.30;1.63;;;;;;;-147.53;100.00;57128.34;10448933;28;20049;-76
2023/04/15 02:58:33;;;;;;;3.53;2.00;;;;;;;-147.53;100.00;57128.34;10466232;28;20037;-76
2023/04/15 03:03:35;;;;;;;6.60;2.65;;;;;;;-147.53;100.00;57128.34;10465304;28;20037;-76
2023/04/15 03:08:37;;;;;;;6.57;2.80;;;;;;;-147.53;100.00;57128.34;10472770;28;20531;-75
2023/04/15 03:13:40;;;;;;;3.47;2.03;;;;;;;-147.53;100.00;57128.34;10466588;28;20101;-76
2023/04/15 03:18:49;;;;;;;2.85;1.88;;;;;;;-147.53;100.00;57128.34;10461129;28;20413;-76
2023/04/15 03:23:53;;;;;;;4.82;2.25;;;;;;;-147.53;100.00;57128.34;10459126;28;20515;-76
2023/04/15 03:28:55;;;;;;;4.20;2.05;;;;;;;-147.53;100.00;57128.34;10436576;28;20135;-75
2023/04/15 03:33:57;;;;;;;4.07;2.10;;;;;;;-147.53;100.00;57128.34;10448984;28;20032;-76
2023/04/15 03:39:00;;;;;;;3.03;1.55;;;;;;;-147.53;100.00;57128.34;10480204;28;20756;-76
2023/04/15 03:44:03;;;;;;;2.05;1.40;;;;;;;-147.53;100.00;57128.34;10449484;28;20473;-75
2023/04/15 03:49:06;;;;;;;2.45;1.77;;;;;;;-147.53;100.00;57128.34;10446546;28;20067;-75
2023/04/15 03:54:08;;;;;;;1.65;1.25;;;;;;;-147.53;100.00;57128.34;10445557;28;20127;-76
2023/04/15 03:59:10;;;;;;;4.55;2.13;;;;;;;-147.53;100.00;57128.34;10446073;28;20052;-76
2023/04/15 04:04:11;;;;;;;5.68;1.38;;;;;;;-147.53;100.00;57128.34;10446288;28;20099;-75
2023/04/15 04:09:13;;;;;;;3.22;1.52;;;;;;;-147.53;100.00;57128.34;10460909;28;20044;-76
2023/04/15 04:14:15;;;;;;;5.63;2.33;;;;;;;-147.53;100.00;57128.34;10456196;28;20048;-76
2023/04/15 04:19:18;;;;;;;3.10;1.67;;;;;;;-147.53;100.00;57128.34;10455603;28;20045;-75
2023/04/15 04:24:20;;;;;;;3.97;1.92;;;;;;;-147.53;100.00;57128.34;10461007;28;20662;-76
2023/04/15 04:29:22;;;;;;;1.90;1.48;;;;;;;-147.53;100.00;57128.34;10439740;28;20049;-76
2023/04/15 04:34:24;;;;;;;2.47;1.60;;;;;;;-147.53;100.00;57128.34;10462637;28;20041;-76
2023/04/15 04:39:25;;;;;;;4.30;2.35;;;;;;;-147.53;100.00;57128.34;10472111;28;20044;-76
2023/04/15 04:44:27;;;;;;;3.05;1.65;;;;;;;-147.53;100.00;57128.34;10461588;28;20489;-76
2023/04/15 04:49:29;;;;;;;2.78;1.75;;;;;;;-147.53;100.00;57128.34;10462252;28;20553;-76
2023/04/15 04:54:31;;;;;;;3.30;1.88;;;;;;;-147.53;100.00;57128.34;10462072;28;20323;-77
2023/04/15 04:59:33;;;;;;;2.20;1.40;;;;;;;-147.53;100.00;57128.34;10431615;28;20180;-77
2023/04/15 05:04:35;;;;;;;5.03;2.58;;;;;;;-147.53;100.00;57128.34;10448620;28;20466;-76
2023/04/15 05:09:38;;;;;;;3.55;1.90;;;;;;;-147.53;100.00;57128.34;10462222;28;20045;-76
2023/04/15 05:14:40;;;;;;;3.60;2.03;;;;;;;-147.53;100.00;57128.34;10455156;28;20048;-76
2023/04/15 05:19:42;;;;;;;4.38;1.88;;;;;;;-147.53;100.00;57128.34;10445550;28;20412;-77
2023/04/15 05:24:43;;;;;;;5.20;2.22;;;;;;;-147.53;100.00;57128.34;10461196;28;20508;-77
2023/04/15 05:29:45;;;;;;;4.22;2.17;;;;;;;-147.53;100.00;57128.34;10413058;28;20049;-76
2023/04/15 05:34:47;;;;;;;3.67;1.98;;;;;;;-147.53;100.00;57128.34;10429883;28;20048;-76
2023/04/15 05:39:48;;;;;;;4.43;2.15;;;;;;;-147.53;100.00;57128.34;10441439;28;20040;-76
2023/04/15 05:44:50;;;;;;;4.03;1.83;;;;;;;-147.53;100.00;57128.34;10429241;28;20045;-76
2023/04/15 05:49:52;;;;;;;3.25;1.75;;;;;;;-147.53;100.00;57128.34;10430642;28;20045;-76
2023/04/15 05:54:53;;;;;;;13.00;3.13;;;;;;;-147.53;100.00;57128.34;10429837;28;20045;-76
2023/04/15 05:59:56;;;;;;;4.20;2.35;;;;;;;-147.53;100.00;57128.34;10440755;28;20632;-76
2023/04/15 06:04:58;;;;;;;6.57;2.13;;;;;;;-147.53;100.00;57128.34;10422098;28;20036;-76
2023/04/15 06:09:59;;;;;;;5.70;2.90;;;;;;;-147.53;100.00;57128.34;10423214;28;20055;-76
2023/04/15 06:15:01;;;;;;;5.13;2.17;;;;;;;-147.53;100.00;57128.34;10427171;28;20418;-76
2023/04/15 06:20:03;;;;;;;8.10;2.67;;;;;;;-147.53;100.00;57128.34;10435238;28;20037;-76
2023/04/15 06:25:07;;;;;;;5.00;2.67;;;;;;;-147.53;100.00;57128.34;10453827;28;20043;-76
2023/04/15 06:30:09;;;;;;;7.63;3.38;;;;;;;-147.53;100.00;57128.34;10464762;28;20057;-79
2023/04/15 06:35:10;;;;;;;5.68;2.67;;;;;;;-147.53;100.00;57128.34;10466602;28;20087;-78
2023/04/15 06:40:13;;;;;;;5.28;2.78;;;;;;;-147.53;100.00;57128.34;10445151;28;20536;-78
2023/04/15 06:45:15;;;;;;;6.55;2.92;;;;;;;-147.53;100.00;57128.34;10452112;28;20036;-78
2023/04/15 06:50:17;;;;;;;6.07;2.83;;;;;;;-147.53;100.00;57128.34;10468168;28;20045;-79
2023/04/15 06:55:19;;;;;;;8.38;2.78;;;;;;;-147.53;100.00;57128.34;10426449;28;20513;-79
2023/04/15 07:00:21;;;;;;;4.95;2.28;;;;;;;-147.53;100.00;57128.34;10460538;28;20040;-78
2023/04/15 07:05:24;;;;;;;6.35;2.97;;;;;;;-147.53;100.00;57128.34;10470356;28;20040;-78
2023/04/15 07:10:26;;;;;;;5.55;2.03;;;;;;;-147.53;100.00;57128.34;10465751;28;20036;-78
2023/04/15 07:15:28;;;;;;;4.43;1.95;;;;;;;-147.53;100.00;57128.34;10474074;28;20049;-79
2023/04/15 07:20:29;;;;;;;5.18;2.00;;;;;;;-147.53;100.00;57128.34;10438036;28;20044;-79
2023/04/15 07:25:31;;;;;;;2.50;1.20;;;;;;;-147.53;100.00;57128.34;10464483;28;20028;-79
2023/04/15 07:30:33;;;;;;;2.17;1.15;;;;;;;-147.53;100.00;57128.34;10457763;28;20505;-77
2023/04/15 07:35:35;;;;;;;3.00;1.25;;;;;;;-147.53;100.00;57128.34;10457306;28;20044;-76
2023/04/15 07:40:38;;;;;;;3.58;1.08;;;;;;;-147.53;100.00;57128.34;10476225;28;20051;-77
2023/04/15 07:45:39;;;;;;;1.70;0.93;;;;;;;-147.53;100.00;57128.34;10437790;28;20037;-78
2023/04/15 07:50:42;;;;;;;1.60;1.02;;;;;;;-147.53;100.00;57128.34;10449213;28;20148;-78
2023/04/15 07:55:44;;;;;;;3.75;1.48;;;;;;;-147.53;100.00;57128.34;10449750;28;20064;-78
2023/04/15 08:00:45;;;;;;;1.55;1.02;;;;;;;-147.53;100.00;57128.34;10436592;28;20056;-79
2023/04/15 08:05:47;;;;;;;1.02;0.60;;;;;;;-147.53;100.00;57128.34;10447758;28;20037;-77
2023/04/15 08:10:49;;;;;;;3.47;1.45;;;;;;;-147.53;100.00;57128.34;10422103;28;20044;-78
2023/04/15 08:16:13;;;;;;;3.20;1.23;;;;;;;-147.53;100.00;57128.34;10463237;28;20036;-79
2023/04/15 08:21:17;;;;;;;3.42;1.13;;;;;;;-147.53;100.00;57128.34;10468003;28;20054;-79
2023/04/15 08:26:20;;;;;;;0.98;0.70;;;;;;;-147.53;100.00;57128.34;10476461;28;20048;-79
2023/04/15 08:31:22;;;;;;;1.55;1.00;;;;;;;-147.53;100.00;57128.34;10459659;28;20508;-80
2023/04/15 08:36:24;;;;;;;1.95;1.02;;;;;;;-147.53;100.00;57128.34;10440820;28;20045;-80
2023/04/15 08:41:28;;;;;;;2.92;1.33;;;;;;;-147.53;100.00;57128.34;10444215;28;20480;-78
2023/04/15 08:46:33;;;;;;;1.55;0.65;;;;;;;-147.53;100.00;57128.34;10448355;28;20040;-79
2023/04/15 08:51:35;;;;;;;1.25;0.57;;;;;;;-147.53;100.00;57128.34;10472259;28;20084;-80
2023/04/15 08:56:37;;;;;;;1.23;0.70;;;;;;;-147.53;100.00;57128.34;10472613;28;20036;-78
2023/04/15 09:01:40;;;;;;;1.17;0.52;;;;;;;-147.53;100.00;57128.34;10461530;28;20424;-79
2023/04/15 09:06:43;;;;;;;0.85;0.60;;;;;;;-147.53;100.00;57128.34;10412202;28;20493;-79
2023/04/15 09:11:45;;;;;;;1.30;0.60;;;;;;;-147.53;100.00;57128.34;10443129;28;20448;-79
2023/04/15 09:17:01;;;;;;;2.97;1.15;;;;;;;-147.53;100.00;57128.34;10454049;28;20072;-80
2023/04/15 09:22:03;;;;;;;2.17;1.20;;;;;;;-147.53;100.00;57128.34;10462008;28;20048;-80
2023/04/15 09:27:05;;;;;;;1.50;0.95;;;;;;;-147.53;100.00;57128.34;10455697;28;20053;-80
2023/04/15 09:32:12;;;;;;;2.08;1.10;;;;;;;-147.53;100.00;57128.34;10462495;28;20490;-80
2023/04/15 09:37:17;;;;;;;1.23;0.65;;;;;;;-147.53;100.00;57128.34;10468001;28;20036;-80
2023/04/15 09:42:32;;;;;;;2.08;0.80;;;;;;;-147.53;100.00;57128.34;10472098;28;20045;-80
2023/04/15 09:47:34;;;;;;;2.17;1.05;;;;;;;-147.53;100.00;57128.34;10459392;28;20508;-79
2023/04/15 09:52:42;;;;;;;2.05;1.20;;;;;;;-147.53;100.00;57128.34;10458078;28;20083;-80
2023/04/15 09:57:45;;;;;;;1.58;1.00;;;;;;;-147.53;100.00;57128.34;10459641;28;20076;-80
2023/04/15 10:02:48;;;;;;;1.42;0.80;;;;;;;-147.53;100.00;57128.34;10451785;28;20064;-80
2023/04/15 10:07:50;;;;;;;1.15;0.60;;;;;;;-147.53;100.00;57128.34;10468162;28;20076;-82
2023/04/15 10:12:53;;;;;;;1.10;0.70;;;;;;;-147.53;100.00;57128.34;10453439;28;20514;-81
2023/04/15 10:17:57;;;;;;;1.52;0.75;;;;;;;-147.53;100.00;57128.34;10427865;28;20610;-81
2023/04/15 10:22:58;;;;;;;0.70;0.55;;;;;;;-147.53;100.00;57128.34;10458107;28;20045;-79
2023/04/15 10:28:01;;;;;;;0.82;0.50;;;;;;;-147.53;100.00;57128.34;10465184;28;20385;-79
2023/04/15 10:33:04;;;;;;;1.13;0.82;;;;;;;-147.53;100.00;57128.34;10450234;28;20072;-80
2023/04/15 10:38:38;;;;;;;1.45;0.88;;;;;;;-147.53;100.00;57128.34;10436185;28;20064;-79
2023/04/15 10:43:53;;;;;;;1.83;0.77;;;;;;;-147.53;100.00;57128.34;10430774;28;20053;-80
2023/04/15 10:48:55;;;;;;;1.90;0.57;;;;;;;-147.53;100.00;57128.34;10459143;28;20805;-81
2023/04/15 10:54:00;;;;;;;1.55;0.95;;;;;;;-147.53;100.00;57128.34;10448933;28;20041;-81
2023/04/15 10:59:04;;;;;;;0.85;0.57;;;;;;;-147.53;100.00;57128.34;10450012;28;20121;-81
2023/04/15 11:04:05;;;;;;;3.42;1.00;;;;;;;-147.53;100.00;57128.34;10443155;28;20584;-78
2023/04/15 11:09:32;;;;;;;1.45;0.82;;;;;;;-147.53;100.00;57128.34;10453831;28;20049;-79
2023/04/15 11:14:43;;;;;;;1.73;0.90;;;;;;;-147.53;100.00;57128.34;10438241;28;20498;-81
2023/04/15 11:19:45;;;;;;;1.50;0.65;;;;;;;-147.53;100.00;57128.34;10465110;28;20040;-80
2023/04/15 11:24:49;;;;;;;1.08;0.63;;;;;;;-147.53;100.00;57128.34;10431173;28;20128;-78
2023/04/15 11:29:51;;;;;;;2.20;1.30;;;;;;;-147.53;100.00;57128.34;10437700;28;20053;-80
2023/04/15 11:34:53;;;;;;;3.28;1.00;;;;;;;-147.53;100.00;57128.34;10456254;28;20040;-79
2023/04/15 11:39:55;;;;;;;2.63;1.63;;;;;;;-147.53;100.00;57128.34;10443485;28;20868;-81
2023/04/15 11:45:10;;;;;;;2.25;0.93;;;;;;;-147.53;100.00;57128.34;10444448;28;20043;-81
2023/04/15 11:50:20;;;;;;;1.27;0.60;;;;;;;-147.53;100.00;57128.34;10428693;28;20485;-80
2023/04/15 11:55:25;;;;;;;1.60;0.73;;;;;;;-147.53;100.00;57128.34;10468490;28;20518;-80
2023/04/15 12:00:27;;;;;;;2.22;0.80;;;;;;;-147.53;100.00;57128.34;10438624;28;20048;-80
2023/04/15 12:05:29;;;;;;;4.60;1.33;;;;;;;-147.53;100.00;57128.34;10454696;28;20033;-79
2023/04/15 12:10:31;;;;;;;3.30;1.40;;;;;;;-147.53;100.00;57128.34;10452614;28;20554;-80
2023/04/15 12:15:38;;;;;;;2.45;1.23;;;;;;;-147.53;100.00;57128.34;10450178;28;20048;-81
2023/04/15 12:20:44;;;;;;;2.53;1.13;;;;;;;-147.53;100.00;57128.34;10469424;28;20044;-81
2023/04/15 12:25:51;;;;;;;2.83;1.60;;;;;;;-147.53;100.00;57128.34;10466662;28;20523;-80
2023/04/15 12:30:53;;;;;;;2.03;1.15;;;;;;;-147.53;100.00;57128.34;10460560;28;20041;-80
2023/04/15 12:35:55;;;;;;;4.25;1.40;;;;;;;-147.53;100.00;57128.34;10466884;28;20109;-80
2023/04/15 12:40:58;;;;;;;5.00;2.03;;;;;;;-147.53;100.00;57128.34;10458919;28;20048;-79
2023/04/15 12:46:00;;;;;;;2.10;1.42;;;;;;;-147.53;100.00;57128.34;10447923;28;20523;-81
2023/04/15 12:51:02;;;;;;;4.80;1.45;;;;;;;-147.53;100.00;57128.34;10447516;28;20037;-80
2023/04/15 12:56:06;;;;;;;7.00;2.28;;;;;;;-147.53;100.00;57128.34;10444610;28;20364;-80
2023/04/15 13:01:09;;;;;;;7.82;2.92;;;;;;;-147.53;100.00;57128.34;10453965;28;20044;-81
2023/04/15 13:06:11;;;;;;;6.47;2.60;;;;;;;-147.53;100.00;57128.34;10468535;28;20072;-81
2023/04/15 13:11:12;;;;;;;4.80;2.50;;;;;;;-147.53;100.00;57128.34;10465488;28;20041;-80
2023/04/15 13:16:14;;;;;;;8.88;2.20;;;;;;;-147.53;100.00;57128.34;10468821;28;20063;-79
2023/04/15 13:21:17;;;;;;;6.30;2.42;;;;;;;-147.53;100.00;57128.34;10466221;28;20056;-81
2023/04/15 13:26:18;;;;;;;5.88;3.28;;;;;;;-147.53;100.00;57128.34;10443805;28;20108;-79
2023/04/15 13:31:20;;;;;;;7.18;2.90;;;;;;;-147.53;100.00;57128.34;10460013;28;20133;-81
2023/04/15 13:36:22;;;;;;;10.70;3.45;;;;;;;-147.53;100.00;57128.34;10429352;28;20049;-81
2023/04/15 13:41:23;;;;;;;8.80;3.25;;;;;;;-147.53;100.00;57128.34;10446558;28;20060;-82
2023/04/15 13:46:25;;;;;;;7.05;2.85;;;;;;;-147.53;100.00;57128.34;10463563;28;20049;-82
2023/04/15 13:51:26;;;;;;;8.10;3.33;;;;;;;-147.53;100.00;57128.34;10458714;28;20079;-80
2023/04/15 13:56:28;;;;;;;11.35;4.75;;;;;;;-147.53;100.00;57128.34;10438749;28;20133;-77
2023/04/15 14:01:34;;;;;;;9.02;3.78;;;;;;;-147.53;100.00;57128.34;10442132;28;20404;-80
2023/04/15 14:06:36;;;;;;;11.23;3.90;;;;;;;-147.53;100.00;57128.34;10449138;28;20053;-79
2023/04/15 14:11:38;;;;;;;9.68;3.95;;;;;;;-147.53;100.00;57128.34;10454302;28;20493;-79
2023/04/15 14:16:39;;;;;;;11.10;4.40;;;;;;;-147.53;100.00;57128.34;10459480;28;20116;-81
2023/04/15 14:21:41;;;;;;;11.32;4.07;;;;;;;-147.53;100.00;57128.34;10467578;28;20046;-81
2023/04/15 14:26:43;;;;;;;9.07;4.10;;;;;;;-147.53;100.00;57128.34;10454829;28;20041;-81
2023/04/15 14:31:45;;;;;;;12.65;5.70;;;;;;;-147.53;100.00;57128.34;10452747;28;20416;-80
2023/04/15 14:37:07;;;;;;;11.00;5.18;;;;;;;-147.53;100.00;57128.34;10424676;28;20041;-80
2023/04/15 14:42:09;;;;;;;13.70;6.47;;;;;;;-147.53;100.00;57128.34;10444713;28;20052;-80
2023/04/15 14:47:11;;;;;;;13.50;6.30;;;;;;;-147.53;100.00;57128.34;10456222;28;20041;-81
2023/04/15 14:52:12;;;;;;;14.30;5.90;;;;;;;-147.53;100.00;57128.34;10436507;28;20041;-80
2023/04/15 14:57:15;;;;;;;14.70;5.63;;;;;;;-147.53;100.00;57128.34;10453804;28;20045;-80
2023/04/15 15:02:16;;;;;;;14.95;6.32;;;;;;;-147.53;100.00;57128.34;10456364;28;20037;-80
2023/04/15 15:07:39;;;;;;;17.08;7.95;;;;;;;-147.53;100.00;57128.34;10454266;28;20047;-80
2023/04/15 15:12:42;;;;;;;20.27;7.60;;;;;;;-147.53;100.00;57128.34;10451643;28;20140;-80
2023/04/15 15:17:44;;;;;;;20.75;7.82;;;;;;;-147.53;100.00;57128.34;10459761;28;20053;-81
2023/04/15 15:22:45;;;;;;;16.60;7.78;;;;;;;-147.53;100.00;57128.34;10462363;28;20049;-81
2023/04/15 15:27:48;;;;;;;17.60;8.32;;;;;;;-147.53;100.00;57128.34;10475419;28;20428;-78
2023/04/15 15:32:50;;;;;;;17.77;7.72;;;;;;;-147.53;100.00;57128.34;10437811;28;20075;-78
2023/04/15 15:37:54;;;;;;;15.77;7.50;;;;;;;-147.53;100.00;57128.34;10458360;28;20032;-81
2023/04/15 15:42:56;;;;;;;18.38;8.05;;;;;;;-147.53;100.00;57128.34;10449043;28;20451;-80
2023/04/15 15:48:00;;;;;;;18.40;8.57;;;;;;;-147.53;100.00;57128.34;10433059;28;20290;-81
2023/04/15 15:53:02;;;;;;;22.13;9.57;;;;;;;-147.53;100.00;57128.34;10457362;28;20041;-78
2023/04/15 15:58:03;;;;;;;17.83;8.07;;;;;;;-147.53;100.00;57128.34;10437675;28;20435;-82
2023/04/15 16:03:05;;;;;;;24.60;9.63;;;;;;;-147.53;100.00;57128.34;10469036;28;20040;-80
2023/04/15 16:08:08;;;;;;;22.55;8.93;;;;;;;-147.53;100.00;57128.34;10467375;28;20098;-81
2023/04/15 16:13:10;;;;;;;22.73;8.25;;;;;;;-147.53;100.00;57128.34;10464413;28;20055;-82
2023/04/15 16:18:12;;;;;;;22.90;10.27;;;;;;;-147.53;100.00;57128.34;10462601;28;20704;-83
2023/04/15 16:23:15;;;;;;;16.70;8.70;;;;;;;-147.53;100.00;57128.34;10452956;28;20424;-81
2023/04/15 16:28:17;;;;;;;18.35;8.00;;;;;;;-147.53;100.00;57128.34;10484612;28;20049;-81
2023/04/15 16:33:27;;;;;;;16.38;8.02;;;;;;;-147.53;100.00;57128.34;10473519;28;20033;-80
2023/04/15 16:38:29;;;;;;;18.20;7.88;;;;;;;-147.53;100.00;57128.34;10428454;28;20045;-82
2023/04/15 16:43:31;;;;;;;15.82;7.72;;;;;;;-147.53;100.00;57128.34;10462799;28;20037;-80
2023/04/15 16:48:33;;;;;;;21.10;7.88;;;;;;;-147.53;100.00;57128.34;10462221;28;20045;-80
2023/04/15 16:53:36;;;;;;;15.95;7.43;;;;;;;-147.53;100.00;57128.34;10452363;28;20040;-80
2023/04/15 16:58:37;;;;;;;14.50;7.95;;;;;;;-147.53;100.00;57128.34;10460781;28;20075;-80
2023/04/15 17:03:39;;;;;;;17.00;7.82;;;;;;;-147.53;100.00;57128.34;10460005;28;20322;-80
2023/04/15 17:08:43;;;;;;;14.95;7.38;;;;;;;-147.53;100.00;57128.34;10424671;28;20072;-80
2023/04/15 17:13:45;;;;;;;15.57;7.60;;;;;;;-147.53;100.00;57128.34;10471100;28;20060;-81
2023/04/15 17:18:49;;;;;;;21.63;7.93;;;;;;;-147.53;100.00;57128.34;10462290;28;20127;-82
2023/04/15 17:23:51;;;;;;;15.60;6.30;;;;;;;-147.53;100.00;57128.34;10466511;28;20041;-82
2023/04/15 17:28:53;;;;;;;14.70;5.85;;;;;;;-147.53;100.00;57128.34;10468327;28;20048;-81
2023/04/15 17:33:55;;;;;;;12.75;6.50;;;;;;;-147.53;100.00;57128.34;10459272;28;20066;-82
2023/04/15 17:39:13;;;;;;;17.50;7.88;;;;;;;-147.53;100.00;57128.34;10470582;28;20338;-84
2023/04/15 17:44:15;;;;;;;14.00;7.50;;;;;;;-147.53;100.00;57128.34;10453041;28;20377;-83
2023/04/15 17:49:17;;;;;;;16.50;7.32;;;;;;;-147.53;100.00;57128.34;10456178;28;20052;-82
2023/04/15 17:54:18;;;;;;;15.35;6.88;;;;;;;-147.53;100.00;57128.34;10463445;28;20049;-82
2023/04/15 17:59:20;;;;;;;15.73;6.80;;;;;;;-147.53;100.00;57128.34;10473807;28;20052;-82
2023/04/15 18:04:22;;;;;;;12.43;6.13;;;;;;;-147.53;100.00;57128.34;10464361;28;20044;-84
2023/04/15 18:09:27;;;;;;;14.25;6.40;;;;;;;-147.53;100.00;57128.34;10456265;28;20120;-80
2023/04/15 18:14:29;;;;;;;12.40;6.80;;;;;;;-147.53;100.00;57128.34;10461575;28;20040;-82
2023/04/15 18:19:35;;;;;;;13.55;6.35;;;;;;;-147.53;100.00;57128.34;10455828;28;20048;-82
2023/04/15 18:24:37;;;;;;;13.55;6.93;;;;;;;-147.53;100.00;57128.34;10462762;28;20033;-80
2023/04/15 18:29:40;;;;;;;13.30;6.82;;;;;;;-147.53;100.00;57128.34;10454851;28;20298;-81
2023/04/15 18:34:42;;;;;;;12.23;6.30;;;;;;;-147.53;100.00;57128.34;10462758;28;20032;-81
2023/04/15 18:39:44;;;;;;;15.50;6.65;;;;;;;-147.53;100.00;57128.34;10456463;28;20068;-80
2023/04/15 18:44:46;;;;;;;12.20;5.90;;;;;;;-147.53;100.00;57128.34;10452445;28;20132;-83
2023/04/15 18:49:47;;;;;;;14.95;6.65;;;;;;;-147.53;100.00;57128.34;10437584;28;20045;-81
2023/04/15 18:54:49;;;;;;;13.15;5.90;;;;;;;-147.53;100.00;57128.34;10456775;28;20044;-81
2023/04/15 18:59:51;;;;;;;16.58;6.85;;;;;;;-147.53;100.00;57128.34;10458571;28;20055;-83
2023/04/15 19:04:52;;;;;;;12.10;6.03;;;;;;;-147.53;100.00;57128.34;10454690;28;20497;-83
2023/04/15 19:09:54;;;;;;;13.68;6.32;;;;;;;-147.53;100.00;57128.34;10459177;28;20055;-81
2023/04/15 19:14:56;;;;;;;12.90;6.82;;;;;;;-147.53;100.00;57128.34;10453722;28;20136;-81
2023/04/15 19:19:58;;;;;;;18.83;6.13;;;;;;;-147.53;100.00;57128.34;10473072;28;20412;-81
2023/04/15 19:24:59;;;;;;;14.43;6.72;;;;;;;-147.53;100.00;57128.34;10453745;28;20028;-82
2023/04/15 19:30:02;;;;;;;12.48;6.45;;;;;;;-147.53;100.00;57128.34;10458672;28;20159;-81
2023/04/15 19:35:04;;;;;;;12.10;6.05;;;;;;;-147.53;100.00;57128.34;10475023;28;20068;-80
2023/04/15 19:40:07;;;;;;;14.23;6.63;;;;;;;-147.53;100.00;57128.34;10462366;28;20067;-81
2023/04/15 19:45:09;;;;;;;12.80;6.43;;;;;;;-147.53;100.00;57128.34;10442884;28;20081;-81
2023/04/15 19:50:11;;;;;;;11.57;6.85;;;;;;;-147.53;100.00;57128.34;10437409;28;20079;-82
2023/04/15 19:55:13;;;;;;;13.98;6.13;;;;;;;-147.53;100.00;57128.34;10478114;28;20394;-82
2023/04/15 20:00:15;;;;;;;11.85;6.85;;;;;;;-147.53;100.00;57128.34;10482554;28;20052;-80
2023/04/15 20:05:18;;;;;;;13.48;5.93;;;;;;;-147.53;100.00;57128.34;10448482;28;20056;-81
2023/04/15 20:10:20;;;;;;;13.25;6.43;;;;;;;-147.53;100.00;57128.34;10468374;28;20075;-81
2023/04/15 20:15:22;;;;;;;11.73;5.00;;;;;;;-147.53;100.00;57128.34;10452836;28;20536;-80
2023/04/15 20:20:25;;;;;;;15.05;7.13;;;;;;;-147.53;100.00;57128.34;10440714;28;20055;-80
2023/04/15 20:25:26;;;;;;;14.13;7.10;;;;;;;-147.53;100.00;57128.34;10459889;28;20135;-83
2023/04/15 20:30:30;;;;;;;12.38;5.95;;;;;;;-147.53;100.00;57128.34;10444329;28;20079;-80
2023/04/15 20:35:32;;;;;;;12.45;5.93;;;;;;;-147.53;100.00;57128.34;10466912;28;20044;-81
2023/04/15 20:40:34;;;;;;;11.75;5.95;;;;;;;-147.53;100.00;57128.34;10475261;28;20241;-80
2023/04/15 20:45:36;;;;;;;14.52;6.75;;;;;;;-147.53;100.00;57128.34;10458928;28;20525;-81
2023/04/15 20:50:37;;;;;;;14.00;5.93;;;;;;;-147.53;100.00;57128.34;10448848;28;20467;-80
2023/04/15 20:55:40;;;;;;;11.68;5.50;;;;;;;-147.53;100.00;57128.34;10432823;28;20041;-80
2023/04/15 21:00:41;;;;;;;15.18;6.22;;;;;;;-147.53;100.00;57128.34;10475471;28;20132;-81
2023/04/15 21:05:43;;;;;;;12.20;6.07;;;;;;;-147.53;100.00;57128.34;10421091;28;20051;-80
2023/04/15 21:10:45;;;;;;;14.07;5.68;;;;;;;-147.53;100.00;57128.34;10459999;28;20041;-81
2023/04/15 21:15:49;;;;;;;9.85;5.93;;;;;;;-147.53;100.00;57128.34;10474530;28;20499;-81
2023/04/15 21:21:00;;;;;;;11.63;5.53;;;;;;;-147.53;100.00;57128.34;10470889;28;20127;-80
2023/04/15 21:26:02;;;;;;;16.67;5.95;;;;;;;-147.53;100.00;57128.34;10484440;28;20037;-80
2023/04/15 21:31:05;;;;;;;14.02;6.43;;;;;;;-147.53;100.00;57128.34;10483246;28;20039;-80
2023/04/15 21:36:07;;;;;;;10.57;5.25;;;;;;;-147.53;100.00;57128.34;10458220;28;20044;-82
2023/04/15 21:41:09;;;;;;;10.25;4.57;;;;;;;-147.53;100.00;57128.34;10482459;28;20500;-80
2023/04/15 21:46:10;;;;;;;11.98;6.32;;;;;;;-147.53;100.00;57128.34;10474869;28;20040;-80
2023/04/15 21:51:25;;;;;;;11.27;5.90;;;;;;;-147.53;100.00;57128.34;10490439;28;20041;-82
2023/04/15 21:56:27;;;;;;;9.52;4.82;;;;;;;-147.53;100.00;57128.34;10459111;28;20504;-80
2023/04/15 22:01:29;;;;;;;12.90;5.72;;;;;;;-147.53;100.00;57128.34;10466510;28;20076;-80
2023/04/15 22:06:31;;;;;;;12.23;6.20;;;;;;;-147.53;100.00;57128.34;10448546;28;20041;-80
2023/04/15 22:11:32;;;;;;;11.25;6.10;;;;;;;-147.53;100.00;57128.34;10464114;28;20489;-83
2023/04/15 22:16:34;;;;;;;15.93;5.97;;;;;;;-147.53;100.00;57128.34;10472642;28;20043;-81
2023/04/15 22:21:36;;;;;;;11.75;5.40;;;;;;;-147.53;100.00;57128.34;10447278;28;20040;-80
2023/04/15 22:26:38;;;;;;;11.75;5.72;;;;;;;-147.53;100.00;57128.34;10473388;28;20048;-80
2023/04/15 22:31:40;;;;;;;12.35;6.00;;;;;;;-147.53;100.00;57128.34;10487239;28;20270;-80
2023/04/15 22:36:42;;;;;;;12.30;5.18;;;;;;;-147.53;100.00;57128.34;10472419;28;20045;-80